Time;durP1;ratioP1;P1;durP2;ratioP2;P2;SDS_P1;SDS_P2;PMS_P1;PMS_P2;Temp;Humidity;BMP_temperature;BMP_pressure;BME280_temperature;BME280_humidity;BME280_pressure;Samples;Min_cycle;Max_cycle;Signal;HPM_P1;HPM_P2
2021/12/26 00:00:45;;;;;;;1.13;0.63;;;25.20;44.10;;;;;;5011025;28;20284;-50
2021/12/26 00:03:16;;;;;;;1.83;0.80;;;25.30;44.20;;;;;;5010736;28;20284;-53
2021/12/26 00:05:46;;;;;;;1.67;0.73;;;25.30;44.30;;;;;;5011003;28;20224;-53
2021/12/26 00:08:19;;;;;;;1.77;0.60;;;25.40;44.40;;;;;;5007524;28;20288;-56
2021/12/26 00:10:50;;;;;;;1.65;0.60;;;25.40;44.20;;;;;;5010245;28;20300;-55
2021/12/26 00:13:22;;;;;;;1.55;0.68;;;25.40;44.00;;;;;;5009878;28;20205;-55
2021/12/26 00:15:52;;;;;;;1.40;0.60;;;25.40;44.30;;;;;;5010298;28;20861;-56
2021/12/26 00:18:23;;;;;;;2.05;0.90;;;25.50;44.10;;;;;;5010394;28;20655;-57
2021/12/26 00:20:53;;;;;;;3.45;0.77;;;25.50;43.90;;;;;;5010203;28;20660;-43
2021/12/26 00:23:26;;;;;;;2.22;0.60;;;25.50;44.00;;;;;;5008238;28;20275;-49
2021/12/26 00:25:56;;;;;;;2.22;0.90;;;25.50;43.80;;;;;;5010254;28;20309;-53
2021/12/26 00:28:27;;;;;;;1.73;0.65;;;25.60;43.90;;;;;;5010437;28;20324;-54
2021/12/26 00:30:58;;;;;;;2.83;0.70;;;25.60;43.80;;;;;;5010905;28;20205;-55
2021/12/26 00:33:29;;;;;;;2.13;0.60;;;25.70;43.80;;;;;;5010049;28;20285;-55
2021/12/26 00:35:59;;;;;;;1.20;0.50;;;25.70;44.00;;;;;;5010229;28;20304;-57
2021/12/26 00:38:32;;;;;;;1.95;0.70;;;25.70;44.30;;;;;;5009532;28;20326;-46
2021/12/26 00:41:03;;;;;;;2.83;0.93;;;25.70;44.50;;;;;;5009539;28;20287;-55
2021/12/26 00:43:33;;;;;;;1.00;0.55;;;25.80;44.50;;;;;;5009921;28;20281;-41
2021/12/26 00:46:04;;;;;;;1.10;0.50;;;25.80;44.60;;;;;;5010551;28;20224;-52
2021/12/26 00:48:34;;;;;;;1.77;0.60;;;25.90;44.60;;;;;;5009132;28;20213;-43
2021/12/26 00:51:05;;;;;;;6.65;2.60;;;25.90;44.80;;;;;;5009650;28;20207;-56
2021/12/26 00:53:37;;;;;;;4.82;1.27;;;25.90;44.80;;;;;;5009643;28;20288;-56
2021/12/26 00:56:08;;;;;;;7.18;1.98;;;26.00;44.90;;;;;;5009834;28;20248;-52
2021/12/26 00:58:38;;;;;;;7.15;2.53;;;26.00;44.80;;;;;;5009738;28;20219;-51
2021/12/26 01:01:09;;;;;;;4.10;1.70;;;26.00;45.00;;;;;;5009575;28;20331;-56
2021/12/26 01:03:40;;;;;;;5.40;2.08;;;26.00;45.00;;;;;;5008796;28;20284;-54
2021/12/26 01:06:11;;;;;;;7.97;1.73;;;26.10;45.10;;;;;;5007085;28;20637;-55
2021/12/26 01:08:47;;;;;;;4.40;1.50;;;26.10;45.00;;;;;;5009419;28;20244;-50
2021/12/26 01:11:31;;;;;;;9.73;2.67;;;26.20;45.00;;;;;;5009221;28;20192;-47
2021/12/26 01:14:03;;;;;;;23.33;3.40;;;26.20;44.90;;;;;;5008273;28;20240;-47
2021/12/26 01:16:34;;;;;;;14.90;2.47;;;26.20;44.70;;;;;;5008509;28;20251;-52
2021/12/26 01:19:12;;;;;;;10.75;2.17;;;26.20;44.70;;;;;;5008902;28;20259;-56
2021/12/26 01:21:43;;;;;;;10.40;2.47;;;26.30;44.90;;;;;;5009694;28;20208;-50
2021/12/26 01:24:17;;;;;;;4.38;1.73;;;26.30;45.00;;;;;;5009239;28;20747;-49
2021/12/26 01:26:47;;;;;;;3.55;1.45;;;26.30;45.30;;;;;;5008610;28;20204;-55
2021/12/26 01:29:18;;;;;;;5.65;1.63;;;26.40;45.50;;;;;;5010199;28;20304;-56
2021/12/26 01:31:49;;;;;;;5.63;1.60;;;26.40;45.80;;;;;;5009761;28;20275;-49
2021/12/26 01:34:19;;;;;;;4.90;1.50;;;26.50;45.90;;;;;;5009351;28;20704;-53
2021/12/26 01:36:49;;;;;;;5.97;1.88;;;26.50;46.00;;;;;;5008521;28;20288;-55
2021/12/26 01:39:22;;;;;;;5.57;1.33;;;26.50;45.90;;;;;;5008070;28;20307;-43
2021/12/26 01:41:53;;;;;;;6.32;1.77;;;26.50;45.90;;;;;;5008082;28;20323;-48
2021/12/26 01:44:24;;;;;;;5.53;1.80;;;26.60;45.90;;;;;;5009036;28;20703;-46
2021/12/26 01:46:54;;;;;;;4.13;1.40;;;26.60;46.00;;;;;;5009014;28;20211;-43
2021/12/26 01:49:26;;;;;;;3.10;1.20;;;26.70;46.00;;;;;;5008987;28;20300;-49
2021/12/26 01:51:59;;;;;;;6.22;1.52;;;26.70;45.90;;;;;;5008690;28;20795;-51
2021/12/26 01:54:38;;;;;;;5.38;1.60;;;26.80;45.80;;;;;;5009380;28;20283;-54
2021/12/26 01:57:11;;;;;;;4.07;1.20;;;26.80;45.70;;;;;;5009025;28;20204;-57
2021/12/26 01:59:42;;;;;;;5.72;1.33;;;26.80;45.70;;;;;;5008313;28;20303;-52
2021/12/26 02:02:13;;;;;;;5.70;1.23;;;26.90;45.70;;;;;;5008311;28;20614;-51
2021/12/26 02:04:44;;;;;;;3.30;1.10;;;26.90;45.60;;;;;;5007627;28;20255;-42
2021/12/26 02:07:16;;;;;;;4.45;1.40;;;26.90;45.60;;;;;;5007537;28;20197;-48
2021/12/26 02:09:48;;;;;;;4.07;1.27;;;26.90;45.40;;;;;;5006946;28;20315;-49
2021/12/26 02:12:18;;;;;;;3.00;1.10;;;27.00;45.50;;;;;;5006411;28;20275;-56
2021/12/26 02:14:49;;;;;;;3.58;1.20;;;27.00;45.50;;;;;;5006702;28;20288;-45
2021/12/26 02:17:20;;;;;;;3.17;1.00;;;27.10;45.40;;;;;;5008003;28;20229;-47
2021/12/26 02:19:54;;;;;;;3.13;1.10;;;27.10;45.30;;;;;;5008928;28;20258;-46
2021/12/26 02:22:30;;;;;;;3.17;1.00;;;27.10;45.40;;;;;;5008695;28;20258;-56
2021/12/26 02:25:25;;;;;;;2.63;0.90;;;27.20;45.40;;;;;;5008597;28;20224;-51
2021/12/26 02:27:54;;;;;;;3.97;1.20;;;27.20;45.30;;;;;;5008036;28;20564;-50
2021/12/26 02:30:25;;;;;;;4.45;0.90;;;27.30;45.10;;;;;;5007351;28;20291;-51
2021/12/26 02:32:59;;;;;;;2.63;1.02;;;27.30;44.90;;;;;;5007518;28;20208;-45
2021/12/26 02:35:32;;;;;;;2.28;1.00;;;27.30;45.10;;;;;;5007574;28;20204;-45
2021/12/26 02:38:03;;;;;;;2.67;0.88;;;27.40;45.00;;;;;;5006401;28;20245;-48
2021/12/26 02:40:34;;;;;;;1.50;0.82;;;27.40;44.80;;;;;;5007778;28;20308;-49
2021/12/26 02:43:05;;;;;;;1.88;0.70;;;27.50;44.70;;;;;;5002938;28;20248;-48
2021/12/26 02:45:36;;;;;;;1.95;0.82;;;27.50;44.70;;;;;;5006942;28;20510;-46
2021/12/26 02:48:09;;;;;;;1.58;0.80;;;27.50;45.40;;;;;;5007191;28;20803;-50
2021/12/26 02:50:43;;;;;;;1.67;0.82;;;27.50;44.70;;;;;;5007926;28;20284;-42
2021/12/26 02:53:15;;;;;;;2.58;0.80;;;27.60;44.70;;;;;;5007502;28;20296;-49
2021/12/26 02:55:45;;;;;;;0.73;0.60;;;27.60;44.60;;;;;;5007347;28;20239;-45
2021/12/26 02:58:16;;;;;;;2.60;0.80;;;27.60;44.60;;;;;;5006861;28;20199;-49
2021/12/26 03:00:51;;;;;;;1.75;0.60;;;27.70;44.60;;;;;;5006666;28;20992;-37
2021/12/26 03:03:21;;;;;;;0.75;0.40;;;27.70;44.40;;;;;;5006807;28;20207;-39
2021/12/26 03:06:01;;;;;;;2.00;0.65;;;27.70;44.30;;;;;;5007002;28;20224;-41
2021/12/26 03:08:32;;;;;;;12.23;3.35;;;27.80;44.30;;;;;;5008017;28;20216;-42
2021/12/26 03:11:02;;;;;;;5.30;1.65;;;27.80;44.20;;;;;;5004228;28;21208;-55
2021/12/26 03:13:33;;;;;;;10.52;3.75;;;27.80;44.30;;;;;;5008758;28;20283;-54
2021/12/26 03:16:03;;;;;;;6.00;2.20;;;27.90;44.00;;;;;;5008037;28;20229;-55
2021/12/26 03:18:34;;;;;;;7.95;2.88;;;27.90;44.20;;;;;;5007693;28;20651;-53
2021/12/26 03:21:07;;;;;;;8.48;2.78;;;27.90;44.10;;;;;;4998630;28;20299;-49
2021/12/26 03:23:37;;;;;;;10.30;3.70;;;28.00;44.00;;;;;;5005662;28;20628;-56
2021/12/26 03:26:09;;;;;;;7.45;3.28;;;28.00;44.00;;;;;;5017984;28;20767;-46
2021/12/26 03:28:46;;;;;;;6.80;3.20;;;28.00;43.90;;;;;;5008702;28;20299;-55
2021/12/26 03:31:24;;;;;;;8.23;3.47;;;28.10;44.00;;;;;;5047683;28;20223;-44
2021/12/26 03:33:55;;;;;;;10.60;4.20;;;28.10;43.90;;;;;;5052280;28;20196;-46
2021/12/26 03:36:28;;;;;;;8.05;3.47;;;28.20;43.80;;;;;;5055556;28;20332;-46
2021/12/26 03:38:58;;;;;;;8.18;3.50;;;28.20;43.90;;;;;;5043661;28;20645;-42
2021/12/26 03:41:29;;;;;;;9.23;3.95;;;28.30;44.00;;;;;;5032041;28;20287;-44
2021/12/26 03:43:59;;;;;;;9.38;3.55;;;28.30;44.00;;;;;;5031637;28;20254;-45
2021/12/26 03:46:30;;;;;;;7.07;3.50;;;28.30;43.90;;;;;;5031114;28;20220;-48
2021/12/26 03:49:04;;;;;;;6.57;3.47;;;28.30;44.00;;;;;;5030557;28;20266;-46
2021/12/26 03:51:37;;;;;;;6.80;3.20;;;28.40;44.10;;;;;;5048311;28;20643;-48
2021/12/26 03:54:09;;;;;;;6.28;2.83;;;28.40;44.10;;;;;;5040795;28;20639;-47
2021/12/26 03:56:40;;;;;;;6.65;3.28;;;28.50;44.10;;;;;;5043339;28;20282;-49
2021/12/26 03:59:10;;;;;;;5.10;2.72;;;28.50;44.10;;;;;;5043725;28;20250;-47
2021/12/26 04:01:41;;;;;;;7.55;3.33;;;28.50;43.90;;;;;;5039548;28;20360;-43
2021/12/26 04:04:11;;;;;;;5.47;3.03;;;28.60;44.00;;;;;;5031268;28;20279;-44
2021/12/26 04:06:44;;;;;;;5.38;2.80;;;28.60;43.80;;;;;;5031258;28;20282;-44
2021/12/26 04:09:14;;;;;;;6.15;2.97;;;28.60;43.80;;;;;;5030390;28;20303;-48
2021/12/26 04:11:46;;;;;;;4.85;2.40;;;28.70;43.90;;;;;;5032494;28;20770;-44
2021/12/26 04:14:17;;;;;;;6.55;2.60;;;28.70;43.80;;;;;;5031821;28;20287;-45
2021/12/26 04:16:48;;;;;;;4.35;2.30;;;28.80;43.80;;;;;;5037827;28;20513;-48
2021/12/26 04:19:18;;;;;;;4.72;2.42;;;28.80;43.80;;;;;;5042893;28;20313;-49
2021/12/26 04:21:51;;;;;;;8.60;2.33;;;28.80;43.70;;;;;;5043894;28;20210;-47
2021/12/26 04:24:22;;;;;;;3.53;2.10;;;28.90;43.70;;;;;;5031555;28;20732;-46
2021/12/26 04:26:52;;;;;;;4.63;2.30;;;28.90;43.60;;;;;;5032130;28;20646;-49
2021/12/26 04:29:23;;;;;;;3.70;1.90;;;28.90;43.40;;;;;;5051207;23;20266;-55
2021/12/26 04:31:53;;;;;;;4.00;2.03;;;28.90;43.30;;;;;;5038988;28;20840;-54
2021/12/26 04:34:24;;;;;;;3.85;2.22;;;29.00;43.30;;;;;;5038450;28;20279;-55
2021/12/26 04:36:56;;;;;;;2.80;1.70;;;29.00;43.20;;;;;;5028939;28;20287;-54
2021/12/26 04:39:27;;;;;;;4.03;1.83;;;29.00;43.10;;;;;;5018254;28;20248;-56
2021/12/26 04:41:57;;;;;;;2.72;1.60;;;29.10;43.20;;;;;;5022393;28;20285;-56
2021/12/26 04:44:28;;;;;;;3.35;1.77;;;29.10;43.10;;;;;;5030080;28;20294;-54
2021/12/26 04:46:58;;;;;;;4.68;2.10;;;29.10;43.00;;;;;;5041443;28;20756;-51
2021/12/26 04:49:29;;;;;;;3.70;1.90;;;29.20;43.30;;;;;;5029172;28;20308;-55
2021/12/26 04:52:01;;;;;;;3.30;2.00;;;29.20;43.50;;;;;;5021850;28;20281;-55
2021/12/26 04:54:31;;;;;;;3.40;1.73;;;29.20;43.60;;;;;;5033171;28;20278;-56
2021/12/26 04:57:02;;;;;;;4.28;1.98;;;29.20;43.70;;;;;;5031798;28;20276;-51
2021/12/26 04:59:32;;;;;;;4.63;1.73;;;29.30;43.90;;;;;;5031992;28;20303;-47
2021/12/26 05:02:03;;;;;;;3.45;1.90;;;29.30;44.00;;;;;;5017576;28;20287;-55
2021/12/26 05:04:33;;;;;;;3.90;1.70;;;29.40;43.90;;;;;;5018420;28;20692;-56
2021/12/26 05:07:06;;;;;;;3.10;1.67;;;29.40;43.90;;;;;;5028934;28;20255;-55
2021/12/26 05:09:37;;;;;;;3.03;1.80;;;29.40;43.90;;;;;;5040334;28;20251;-57
2021/12/26 05:12:08;;;;;;;2.13;1.48;;;29.40;43.90;;;;;;5030865;28;20495;-56
2021/12/26 05:14:39;;;;;;;3.67;1.70;;;29.50;43.70;;;;;;5031438;28;20279;-53
2021/12/26 05:17:09;;;;;;;2.95;1.67;;;29.50;43.50;;;;;;5030841;28;20291;-56
2021/12/26 05:19:40;;;;;;;2.50;1.50;;;29.50;43.30;;;;;;5028190;28;20315;-53
2021/12/26 05:22:12;;;;;;;3.15;1.60;;;29.50;43.00;;;;;;5033504;28;20286;-55
2021/12/26 05:24:42;;;;;;;2.47;1.50;;;29.60;42.90;;;;;;5037861;28;20291;-55
2021/12/26 05:27:13;;;;;;;1.23;1.10;;;29.60;42.80;;;;;;5030431;28;20769;-56
2021/12/26 05:29:43;;;;;;;2.05;1.30;;;29.60;42.60;;;;;;5030710;28;20802;-56
2021/12/26 05:32:14;;;;;;;2.40;1.27;;;29.60;42.50;;;;;;5047382;28;20259;-52
2021/12/26 05:34:44;;;;;;;1.80;1.30;;;29.60;42.50;;;;;;5030350;28;20291;-56
2021/12/26 05:37:17;;;;;;;1.85;1.20;;;29.60;42.40;;;;;;5029490;28;20232;-56
2021/12/26 05:39:49;;;;;;;2.00;1.40;;;29.60;42.40;;;;;;5028215;28;20252;-47
2021/12/26 05:42:21;;;;;;;2.17;1.30;;;29.70;42.50;;;;;;5028252;28;20283;-56
2021/12/26 05:44:51;;;;;;;2.55;1.30;;;29.70;42.60;;;;;;5028120;28;20303;-52
2021/12/26 05:47:22;;;;;;;2.10;1.20;;;29.70;42.80;;;;;;5030347;28;20310;-54
2021/12/26 05:49:53;;;;;;;1.85;1.00;;;29.70;42.80;;;;;;5013297;28;20259;-52
2021/12/26 05:52:25;;;;;;;1.20;1.00;;;29.70;42.90;;;;;;5017784;28;20291;-55
2021/12/26 05:54:56;;;;;;;1.35;1.10;;;29.80;42.90;;;;;;5024504;28;20283;-54
2021/12/26 05:57:26;;;;;;;1.92;1.10;;;29.80;43.00;;;;;;5029319;28;20282;-56
2021/12/26 05:59:57;;;;;;;2.22;1.13;;;29.80;43.00;;;;;;5028371;28;20306;-56
2021/12/26 06:02:27;;;;;;;2.10;1.20;;;29.80;42.90;;;;;;5027878;28;20287;-51
2021/12/26 06:04:58;;;;;;;1.58;1.13;;;29.80;42.80;;;;;;5047154;28;20282;-56
2021/12/26 06:07:30;;;;;;;1.70;0.93;;;29.90;42.80;;;;;;5043887;28;20310;-56
2021/12/26 06:10:01;;;;;;;1.60;1.00;;;29.90;42.70;;;;;;5027710;28;20299;-53
2021/12/26 06:12:31;;;;;;;2.22;1.00;;;29.90;42.70;;;;;;5016266;28;20244;-49
2021/12/26 06:15:02;;;;;;;2.00;1.00;;;29.90;42.50;;;;;;5028423;28;20618;-52
2021/12/26 06:17:32;;;;;;;1.33;0.82;;;29.90;42.40;;;;;;5041133;28;20283;-53
2021/12/26 06:20:02;;;;;;;1.85;0.80;;;30.00;42.30;;;;;;5014297;28;20690;-56
2021/12/26 06:22:35;;;;;;;1.45;0.95;;;30.00;42.10;;;;;;5012889;28;20284;-57
2021/12/26 06:25:05;;;;;;;1.25;0.85;;;30.00;42.00;;;;;;5028029;28;20280;-53
2021/12/26 06:27:36;;;;;;;1.02;0.75;;;30.00;42.00;;;;;;5029282;28;20330;-56
2021/12/26 06:30:08;;;;;;;1.98;0.90;;;30.00;42.00;;;;;;5026998;28;20661;-55
2021/12/26 06:32:39;;;;;;;1.30;0.80;;;30.00;42.00;;;;;;5028177;28;20279;-41
2021/12/26 06:35:10;;;;;;;1.52;0.90;;;30.00;42.00;;;;;;5014264;28;20286;-54
2021/12/26 06:37:43;;;;;;;1.40;0.70;;;30.00;42.00;;;;;;5045035;28;20290;-45
2021/12/26 06:40:14;;;;;;;1.75;0.80;;;30.00;42.00;;;;;;5028995;28;20307;-44
2021/12/26 06:42:46;;;;;;;2.10;0.75;;;30.00;42.10;;;;;;5028979;28;20287;-49
2021/12/26 06:45:18;;;;;;;0.93;0.60;;;30.00;42.20;;;;;;5024066;28;20200;-44
2021/12/26 06:47:50;;;;;;;1.23;0.73;;;30.10;42.30;;;;;;5026439;28;20230;-43
2021/12/26 06:50:22;;;;;;;0.70;0.60;;;30.10;42.30;;;;;;5040135;28;20654;-41
2021/12/26 06:52:54;;;;;;;1.63;0.60;;;30.10;42.30;;;;;;5029493;28;20704;-39
2021/12/26 06:55:24;;;;;;;0.95;0.55;;;30.10;42.20;;;;;;5019138;28;20238;-47
2021/12/26 06:57:55;;;;;;;1.38;0.85;;;30.10;42.20;;;;;;5029546;28;20246;-47
2021/12/26 07:00:25;;;;;;;1.52;0.80;;;30.10;42.20;;;;;;5028278;28;20223;-45
2021/12/26 07:02:56;;;;;;;1.10;0.80;;;30.10;42.10;;;;;;5030964;28;20286;-49
2021/12/26 07:05:26;;;;;;;1.65;0.70;;;30.10;42.00;;;;;;5027513;28;20290;-46
2021/12/26 07:07:59;;;;;;;1.02;0.70;;;30.10;42.00;;;;;;5028451;28;20328;-55
2021/12/26 07:10:30;;;;;;;1.02;0.60;;;30.20;41.90;;;;;;5017743;28;20739;-51
2021/12/26 07:13:00;;;;;;;1.02;0.57;;;30.20;41.90;;;;;;5044907;28;20275;-51
2021/12/26 07:15:31;;;;;;;0.98;0.65;;;30.20;41.80;;;;;;5016776;28;20404;-50
2021/12/26 07:18:01;;;;;;;1.00;0.57;;;30.20;41.70;;;;;;5033898;28;20286;-50
2021/12/26 07:20:32;;;;;;;1.27;0.70;;;30.10;41.50;;;;;;5035399;28;20286;-49
2021/12/26 07:23:04;;;;;;;0.57;0.57;;;30.10;41.50;;;;;;5027770;28;20325;-52
2021/12/26 07:25:35;;;;;;;1.05;0.40;;;30.10;41.30;;;;;;5017076;28;20296;-56
2021/12/26 07:28:06;;;;;;;0.38;0.38;;;30.10;41.20;;;;;;5025818;28;20307;-54
2021/12/26 07:30:37;;;;;;;0.60;0.50;;;30.10;41.20;;;;;;5026571;28;20303;-56
2021/12/26 07:33:07;;;;;;;0.82;0.63;;;30.10;41.20;;;;;;5017871;28;20680;-53
2021/12/26 07:35:38;;;;;;;0.93;0.50;;;30.10;41.20;;;;;;5016584;28;20712;-51
2021/12/26 07:38:10;;;;;;;1.45;0.47;;;30.00;41.20;;;;;;5019530;28;20275;-54
2021/12/26 07:40:40;;;;;;;1.95;0.65;;;30.00;41.20;;;;;;5028264;28;20280;-56
2021/12/26 07:43:11;;;;;;;1.17;0.47;;;30.00;41.20;;;;;;5028871;28;20239;-52
2021/12/26 07:45:41;;;;;;;0.60;0.38;;;30.00;41.20;;;;;;5045314;28;20647;-49
2021/12/26 07:48:12;;;;;;;1.27;0.50;;;30.00;41.20;;;;;;5028322;28;20259;-50
2021/12/26 07:50:42;;;;;;;1.20;0.60;;;29.90;41.10;;;;;;5027774;28;20291;-57
2021/12/26 07:53:15;;;;;;;0.65;0.47;;;29.90;41.20;;;;;;5021430;28;20280;-57
2021/12/26 07:55:45;;;;;;;0.73;0.50;;;29.80;41.20;;;;;;5015844;28;20279;-56
2021/12/26 07:58:16;;;;;;;0.52;0.50;;;29.80;41.20;;;;;;5013757;28;21195;-53
2021/12/26 08:00:47;;;;;;;0.52;0.30;;;29.80;41.10;;;;;;5027285;28;20200;-56
2021/12/26 08:03:17;;;;;;;0.85;0.50;;;29.70;41.00;;;;;;5013696;28;20752;-54
2021/12/26 08:05:48;;;;;;;0.35;0.30;;;29.70;40.90;;;;;;5036905;28;20290;-51
2021/12/26 08:08:20;;;;;;;0.50;0.40;;;29.70;40.80;;;;;;5032551;28;20311;-57
2021/12/26 08:10:51;;;;;;;0.98;0.30;;;29.70;40.80;;;;;;5023501;28;20721;-57
2021/12/26 08:13:21;;;;;;;1.65;0.50;;;29.60;40.70;;;;;;5017026;28;20657;-55
2021/12/26 08:15:51;;;;;;;1.42;0.43;;;29.60;40.70;;;;;;5031731;28;20303;-54
2021/12/26 08:18:22;;;;;;;0.30;0.30;;;29.60;40.70;;;;;;5030104;28;20299;-52
2021/12/26 08:20:52;;;;;;;0.30;0.30;;;29.50;40.70;;;;;;5045011;28;20286;-54
2021/12/26 08:23:25;;;;;;;0.57;0.30;;;29.50;40.60;;;;;;5023878;28;20295;-55
2021/12/26 08:25:55;;;;;;;0.55;0.40;;;29.50;40.60;;;;;;5017393;28;20720;-57
2021/12/26 08:28:27;;;;;;;1.02;0.47;;;29.40;40.50;;;;;;5019055;28;20303;-55
2021/12/26 08:30:57;;;;;;;1.75;0.40;;;29.40;40.40;;;;;;5017515;28;20292;-55
2021/12/26 08:33:27;;;;;;;0.82;0.40;;;29.30;40.30;;;;;;5032174;28;20227;-50
2021/12/26 08:35:58;;;;;;;0.60;0.45;;;29.20;40.20;;;;;;5031010;28;20290;-56
2021/12/26 08:38:31;;;;;;;0.45;0.30;;;29.20;40.20;;;;;;5043006;28;20227;-56
2021/12/26 08:41:01;;;;;;;1.23;0.55;;;29.10;40.20;;;;;;5029846;28;20287;-50
2021/12/26 08:43:33;;;;;;;0.90;0.50;;;29.10;40.00;;;;;;5029320;28;20272;-56
2021/12/26 08:46:03;;;;;;;0.73;0.50;;;29.10;39.90;;;;;;5030339;28;20619;-55
2021/12/26 08:48:34;;;;;;;0.98;0.40;;;29.00;39.80;;;;;;5028774;28;20262;-51
2021/12/26 08:51:04;;;;;;;0.70;0.50;;;29.00;39.80;;;;;;5030954;28;20283;-56
2021/12/26 08:53:37;;;;;;;2.17;0.68;;;29.00;39.70;;;;;;5033584;28;20220;-56
2021/12/26 08:56:07;;;;;;;0.90;0.60;;;28.90;39.60;;;;;;5031571;28;20284;-56
2021/12/26 08:58:38;;;;;;;1.05;0.50;;;28.90;39.50;;;;;;5030954;28;20267;-57
2021/12/26 09:01:08;;;;;;;0.68;0.40;;;28.80;39.40;;;;;;5033325;28;20287;-57
2021/12/26 09:03:40;;;;;;;0.77;0.40;;;28.80;39.30;;;;;;5042900;28;20287;-54
2021/12/26 09:06:11;;;;;;;0.75;0.50;;;28.80;39.30;;;;;;5013899;28;20648;-56
2021/12/26 09:08:43;;;;;;;2.92;0.50;;;28.70;39.30;;;;;;5026210;28;20306;-56
2021/12/26 09:11:15;;;;;;;0.75;0.40;;;28.70;39.20;;;;;;5032987;28;20284;-56
2021/12/26 09:13:46;;;;;;;0.95;0.40;;;28.60;39.20;;;;;;5026686;28;20287;-52
2021/12/26 09:16:17;;;;;;;0.85;0.47;;;28.60;39.30;;;;;;5023883;28;20287;-55
2021/12/26 09:18:47;;;;;;;2.90;0.60;;;28.50;39.30;;;;;;5020066;28;20303;-52
2021/12/26 09:21:18;;;;;;;1.27;0.68;;;28.50;39.30;;;;;;5031166;28;20229;-57
2021/12/26 09:23:50;;;;;;;0.68;0.47;;;28.50;39.30;;;;;;5029521;28;20292;-50
2021/12/26 09:26:21;;;;;;;0.55;0.40;;;28.40;39.30;;;;;;5029390;28;20273;-56
2021/12/26 09:28:51;;;;;;;0.47;0.35;;;28.40;39.40;;;;;;5029338;28;20314;-57
2021/12/26 09:31:22;;;;;;;0.50;0.40;;;28.40;39.40;;;;;;5028524;28;20642;-56
2021/12/26 09:33:53;;;;;;;0.47;0.47;;;28.30;39.50;;;;;;5037651;23;20315;-45
2021/12/26 09:36:23;;;;;;;0.88;0.40;;;28.30;39.60;;;;;;5028316;28;20232;-43
2021/12/26 09:38:56;;;;;;;2.22;0.60;;;28.20;39.50;;;;;;5030336;28;20306;-45
2021/12/26 09:41:26;;;;;;;0.80;0.50;;;28.20;39.60;;;;;;5028918;28;20274;-46
2021/12/26 09:43:57;;;;;;;0.70;0.45;;;28.20;39.60;;;;;;5021754;28;20287;-43
2021/12/26 09:46:31;;;;;;;0.60;0.40;;;28.20;39.70;;;;;;5027224;28;20283;-41
2021/12/26 09:49:02;;;;;;;0.50;0.40;;;28.10;39.70;;;;;;5027434;28;20302;-44
2021/12/26 09:51:32;;;;;;;0.63;0.63;;;28.10;39.70;;;;;;5027668;28;20275;-41
2021/12/26 09:54:06;;;;;;;1.02;0.40;;;28.00;39.70;;;;;;5028279;28;20282;-43
2021/12/26 09:56:36;;;;;;;0.52;0.52;;;28.00;39.60;;;;;;5025551;28;20231;-43
2021/12/26 09:59:08;;;;;;;0.80;0.50;;;28.00;39.70;;;;;;5028973;28;20247;-41
2021/12/26 10:01:40;;;;;;;0.85;0.45;;;28.00;39.70;;;;;;5027626;28;20288;-44
2021/12/26 10:04:20;;;;;;;0.90;0.50;;;27.90;39.80;;;;;;5018516;28;20241;-46
2021/12/26 10:06:52;;;;;;;0.57;0.43;;;27.90;39.80;;;;;;5020600;28;20282;-43
2021/12/26 10:09:24;;;;;;;0.73;0.50;;;27.80;39.80;;;;;;5026688;28;20303;-40
2021/12/26 10:11:56;;;;;;;0.77;0.50;;;27.80;39.90;;;;;;5030921;28;20998;-46
2021/12/26 10:14:28;;;;;;;0.52;0.30;;;27.80;40.00;;;;;;5020114;28;20282;-43
2021/12/26 10:17:00;;;;;;;0.77;0.50;;;27.70;40.00;;;;;;5028771;28;20254;-41
2021/12/26 10:19:35;;;;;;;1.10;0.60;;;27.70;40.20;;;;;;5015133;28;20225;-42
2021/12/26 10:22:08;;;;;;;0.73;0.50;;;27.60;40.20;;;;;;5024809;28;20204;-40
2021/12/26 10:24:42;;;;;;;1.00;0.50;;;27.60;40.30;;;;;;5027344;28;20235;-42
2021/12/26 10:27:15;;;;;;;0.75;0.45;;;27.60;40.40;;;;;;5028414;28;20322;-41
2021/12/26 10:29:46;;;;;;;2.20;0.52;;;27.60;40.40;;;;;;5025862;28;20719;-42
2021/12/26 10:34:50;;;;;;;0.50;0.47;;;27.60;40.50;;;;;;4981086;28;20272;-51
2021/12/26 10:37:23;;;;;;;0.60;0.55;;;27.50;40.40;;;;;;4987417;28;20205;-50
2021/12/26 10:39:57;;;;;;;1.20;0.43;;;27.50;40.50;;;;;;4972799;28;20312;-57
2021/12/26 10:42:30;;;;;;;0.60;0.40;;;27.50;40.50;;;;;;4968536;28;20239;-55
2021/12/26 10:45:02;;;;;;;0.40;0.40;;;27.50;40.50;;;;;;4967514;28;20198;-56
2021/12/26 10:47:34;;;;;;;1.73;0.50;;;27.40;40.50;;;;;;4969340;28;20218;-50
2021/12/26 10:50:06;;;;;;;0.50;0.43;;;27.40;40.50;;;;;;4952327;28;20306;-53
2021/12/26 10:52:38;;;;;;;0.88;0.50;;;27.40;40.40;;;;;;4953482;28;20655;-50
2021/12/26 10:55:13;;;;;;;1.60;0.57;;;27.40;40.50;;;;;;4968134;28;20658;-57
2021/12/26 10:57:47;;;;;;;0.70;0.57;;;27.30;40.40;;;;;;4958254;28;20290;-57
2021/12/26 11:00:21;;;;;;;1.40;0.68;;;27.30;40.60;;;;;;4963792;28;20654;-50
2021/12/26 11:02:54;;;;;;;0.88;0.60;;;27.30;39.60;;;;;;4968529;28;20285;-51
2021/12/26 11:05:26;;;;;;;2.30;0.98;;;27.20;39.30;;;;;;4969719;28;20286;-53
2021/12/26 11:07:59;;;;;;;2.22;0.98;;;27.10;39.30;;;;;;4954161;28;20316;-53
2021/12/26 11:10:35;;;;;;;2.50;0.57;;;27.10;39.60;;;;;;4968590;28;20194;-51
2021/12/26 11:13:06;;;;;;;1.88;0.60;;;27.10;39.70;;;;;;4968643;28;20233;-57
2021/12/26 11:15:39;;;;;;;2.28;1.08;;;27.10;39.90;;;;;;4977267;28;20288;-53
2021/12/26 11:18:10;;;;;;;2.47;0.98;;;27.00;39.80;;;;;;4973497;28;20285;-56
2021/12/26 11:20:42;;;;;;;3.80;1.77;;;27.00;40.00;;;;;;4968944;28;20313;-57
2021/12/26 11:23:15;;;;;;;1.58;1.23;;;27.00;40.00;;;;;;4968302;28;20641;-53
2021/12/26 11:25:50;;;;;;;2.47;1.10;;;27.00;40.10;;;;;;4954416;28;20277;-57
2021/12/26 11:28:26;;;;;;;3.40;1.70;;;26.90;40.10;;;;;;4969146;28;20353;-54
2021/12/26 11:30:58;;;;;;;4.63;1.63;;;26.90;40.20;;;;;;4962028;28;20620;-57
2021/12/26 11:33:29;;;;;;;2.83;1.75;;;26.90;40.20;;;;;;4966396;28;20206;-56
2021/12/26 11:36:01;;;;;;;1.75;1.30;;;26.90;40.30;;;;;;4983088;28;20296;-57
2021/12/26 11:38:32;;;;;;;2.80;1.40;;;26.90;40.40;;;;;;4986551;28;20308;-56
2021/12/26 11:41:06;;;;;;;2.28;1.48;;;26.80;40.30;;;;;;4988120;28;20276;-53
2021/12/26 11:44:04;;;;;;;2.42;1.55;;;26.80;40.40;;;;;;4973794;28;20279;-54
2021/12/26 11:46:44;;;;;;;2.08;1.30;;;26.80;40.40;;;;;;4973762;28;20755;-42
2021/12/26 11:49:38;;;;;;;2.00;1.17;;;26.80;40.50;;;;;;4991043;28;20331;-39
2021/12/26 11:52:31;;;;;;;2.42;1.33;;;26.70;40.50;;;;;;4992232;28;20194;-53
2021/12/26 11:55:25;;;;;;;2.67;1.40;;;26.70;40.80;;;;;;4992009;28;20633;-48
2021/12/26 11:58:30;;;;;;;4.18;1.38;;;26.60;40.90;;;;;;4989941;28;20280;-54
2021/12/26 12:01:02;;;;;;;1.90;1.30;;;26.60;40.90;;;;;;4960161;28;20202;-50
2021/12/26 12:03:34;;;;;;;3.08;1.42;;;26.60;41.00;;;;;;4977617;28;20675;-50
2021/12/26 12:06:05;;;;;;;2.50;1.27;;;26.60;41.00;;;;;;4988637;28;20289;-52
2021/12/26 12:08:37;;;;;;;4.05;1.33;;;26.60;41.10;;;;;;4983121;28;20343;-58
2021/12/26 12:11:10;;;;;;;1.83;1.00;;;26.50;41.10;;;;;;4989213;28;20284;-47
2021/12/26 12:13:55;;;;;;;2.15;0.90;;;26.50;41.20;;;;;;4989813;28;20197;-41
2021/12/26 12:16:35;;;;;;;2.28;1.25;;;26.50;41.20;;;;;;4989702;28;20280;-46
2021/12/26 12:19:11;;;;;;;3.05;1.20;;;26.40;41.20;;;;;;4990968;28;20229;-37
2021/12/26 12:21:44;;;;;;;1.65;0.80;;;26.40;41.20;;;;;;4990606;28;20575;-37
2021/12/26 12:24:16;;;;;;;2.33;1.20;;;26.40;41.20;;;;;;4989937;28;20204;-46
2021/12/26 12:26:53;;;;;;;2.55;0.98;;;26.40;41.30;;;;;;4990235;28;20292;-50
2021/12/26 12:29:50;;;;;;;2.25;1.10;;;26.40;41.30;;;;;;4990145;28;20316;-49
2021/12/26 12:32:23;;;;;;;1.92;0.85;;;26.40;41.30;;;;;;4990840;28;20556;-46
2021/12/26 12:34:57;;;;;;;1.20;0.80;;;26.30;41.30;;;;;;4990405;28;20232;-43
2021/12/26 12:37:33;;;;;;;1.05;0.88;;;26.30;41.30;;;;;;4988854;28;20294;-48
2021/12/26 12:40:25;;;;;;;1.98;1.00;;;26.30;41.30;;;;;;4990857;28;20359;-46
2021/12/26 12:43:12;;;;;;;1.55;1.02;;;26.20;41.30;;;;;;4990929;28;20567;-51
2021/12/26 12:46:06;;;;;;;1.33;0.85;;;26.20;41.40;;;;;;4989799;28;20281;-51
2021/12/26 12:48:41;;;;;;;1.50;0.95;;;26.20;41.40;;;;;;4989952;28;20233;-53
2021/12/26 12:51:33;;;;;;;1.08;0.80;;;26.10;41.30;;;;;;4990853;28;20244;-56
2021/12/26 12:54:07;;;;;;;1.98;0.90;;;26.10;41.50;;;;;;4990795;28;20289;-49
2021/12/26 12:56:46;;;;;;;1.65;1.00;;;26.10;41.40;;;;;;4989812;28;20212;-38
2021/12/26 12:59:40;;;;;;;1.23;0.90;;;26.10;41.40;;;;;;4988305;28;20230;-45
2021/12/26 13:02:26;;;;;;;1.60;1.10;;;26.10;41.50;;;;;;4987979;28;20217;-46
2021/12/26 13:04:57;;;;;;;2.22;0.70;;;26.00;42.00;;;;;;4988646;28;20285;-42
2021/12/26 13:07:30;;;;;;;1.65;0.90;;;26.00;41.50;;;;;;4989327;28;20305;-51
2021/12/26 13:10:03;;;;;;;2.83;1.00;;;26.00;41.50;;;;;;4989696;28;20626;-39
2021/12/26 13:12:33;;;;;;;1.95;0.88;;;26.00;41.50;;;;;;4992468;28;20292;-40
2021/12/26 13:15:05;;;;;;;0.93;0.82;;;25.90;41.50;;;;;;4991239;28;20894;-38